Time;durP1;ratioP1;P1;durP2;ratioP2;P2;SDS_P1;SDS_P2;PMS_P1;PMS_P2;Temp;Humidity;BMP_temperature;BMP_pressure;BME280_temperature;BME280_humidity;BME280_pressure;Samples;Min_cycle;Max_cycle;Signal;HPM_P1;HPM_P2
2023/10/19 00:01:06;;;;;;;23.48;16.45;;;;;;;-143.90;100.00;65065.84;6184339;23;20009;-81
2023/10/19 00:03:32;;;;;;;25.30;17.67;;;;;;;-143.90;100.00;65065.84;6182871;23;20378;-80
2023/10/19 00:05:57;;;;;;;23.60;16.88;;;;;;;-143.90;100.00;65065.84;6184334;23;20013;-80
2023/10/19 00:08:23;;;;;;;23.00;14.38;;;;;;;-143.90;100.00;65065.84;6184108;23;20371;-81
2023/10/19 00:11:02;;;;;;;27.10;17.77;;;;;;;-143.90;100.00;65065.84;6184277;23;20079;-82
2023/10/19 00:13:28;;;;;;;26.00;16.75;;;;;;;-143.90;100.00;65065.84;6184326;23;20005;-80
2023/10/19 00:15:57;;;;;;;24.52;15.95;;;;;;;-143.90;100.00;65065.84;6184282;23;20005;-80
2023/10/19 00:18:23;;;;;;;22.08;14.20;;;;;;;-143.90;100.00;65065.84;6157695;23;20016;-81
2023/10/19 00:20:59;;;;;;;27.35;17.45;;;;;;;-143.90;100.00;65065.84;6184117;23;20113;-81
2023/10/19 00:23:28;;;;;;;24.73;16.17;;;;;;;-143.90;100.00;65065.84;6184456;23;20424;-80
2023/10/19 00:25:59;;;;;;;29.55;17.33;;;;;;;-143.90;100.00;65065.84;6184563;23;20423;-80
2023/10/19 00:28:28;;;;;;;26.00;15.75;;;;;;;-143.90;100.00;65065.84;6184671;23;20316;-81
2023/10/19 00:30:59;;;;;;;26.23;17.35;;;;;;;-143.90;100.00;65065.84;6182605;23;20009;-81
2023/10/19 00:33:28;;;;;;;24.38;14.88;;;;;;;-143.90;100.00;65065.84;6157975;23;20007;-81
2023/10/19 00:35:58;;;;;;;24.10;15.07;;;;;;;-143.90;100.00;65065.84;6184119;23;20012;-81
2023/10/19 00:41:17;;;;;;;23.38;13.38;;;;;;;-143.90;100.00;65065.84;6184695;23;20013;-80
2023/10/19 00:43:44;;;;;;;27.52;15.20;;;;;;;-143.90;100.00;65065.84;6183517;23;20013;-80
2023/10/19 00:48:49;;;;;;;21.40;14.75;;;;;;;-143.90;100.00;65065.84;6190942;23;20075;-80
2023/10/19 00:53:57;;;;;;;29.05;16.75;;;;;;;-143.90;100.00;65065.84;6184432;23;20016;-79
2023/10/19 00:56:25;;;;;;;23.90;14.80;;;;;;;-143.90;100.00;65065.84;6184336;23;20335;-79
2023/10/19 00:58:59;;;;;;;26.00;15.50;;;;;;;-143.90;100.00;65065.84;6182618;23;20087;-79
2023/10/19 01:01:29;;;;;;;30.35;17.58;;;;;;;-143.90;100.00;65065.84;6184152;23;20009;-79
2023/10/19 01:03:56;;;;;;;28.80;16.10;;;;;;;-143.90;100.00;65065.84;6184133;23;20007;-79
2023/10/19 01:06:31;;;;;;;26.05;14.15;;;;;;;-143.90;100.00;65065.84;6185827;23;20009;-81
2023/10/19 01:08:57;;;;;;;24.65;15.13;;;;;;;-143.90;100.00;65065.84;6185876;23;20335;-80
2023/10/19 01:11:28;;;;;;;21.05;13.02;;;;;;;-143.90;100.00;65065.84;6158030;23;20057;-80
2023/10/19 01:13:53;;;;;;;26.17;14.65;;;;;;;-143.90;100.00;65065.84;6184743;23;20001;-80
2023/10/19 01:16:22;;;;;;;23.95;14.63;;;;;;;-143.90;100.00;65065.84;6184578;23;20326;-78
2023/10/19 01:18:53;;;;;;;26.35;15.02;;;;;;;-143.90;100.00;65065.84;6158030;23;20005;-78
2023/10/19 01:21:25;;;;;;;20.67;13.27;;;;;;;-143.90;100.00;65065.84;6182778;23;20064;-80
2023/10/19 01:23:52;;;;;;;21.90;12.82;;;;;;;-143.90;100.00;65065.84;6184100;23;20440;-80
2023/10/19 01:26:26;;;;;;;24.35;14.20;;;;;;;-143.90;100.00;65065.84;6183960;23;20005;-80
2023/10/19 01:28:53;;;;;;;22.95;12.70;;;;;;;-143.90;100.00;65065.84;6184043;23;20418;-77
2023/10/19 01:34:05;;;;;;;20.55;13.32;;;;;;;-143.90;100.00;65065.84;6190104;23;20400;-80
2023/10/19 01:36:37;;;;;;;19.25;11.60;;;;;;;-143.90;100.00;65065.84;6184168;23;20007;-80
2023/10/19 01:39:09;;;;;;;20.83;11.65;;;;;;;-143.90;100.00;65065.84;6184183;23;20055;-80
2023/10/19 01:41:34;;;;;;;20.05;11.82;;;;;;;-143.90;100.00;65065.84;6184022;23;20001;-79
2023/10/19 01:44:04;;;;;;;16.90;10.48;;;;;;;-143.90;100.00;65065.84;6184055;23;20028;-79
2023/10/19 01:46:36;;;;;;;18.08;10.32;;;;;;;-143.90;100.00;65065.84;6157524;23;20040;-81
2023/10/19 01:49:03;;;;;;;18.60;10.37;;;;;;;-143.90;100.00;65065.84;6157543;23;20005;-80
2023/10/19 01:51:32;;;;;;;17.83;9.98;;;;;;;-143.90;100.00;65065.84;6184089;23;20322;-79
2023/10/19 01:54:00;;;;;;;16.85;9.60;;;;;;;-143.90;100.00;65065.84;6183946;23;20008;-78
2023/10/19 01:56:26;;;;;;;18.45;11.30;;;;;;;-143.90;100.00;65065.84;6183846;23;20005;-79
2023/10/19 01:58:53;;;;;;;17.17;10.20;;;;;;;-143.90;100.00;65065.84;6183882;23;20478;-80
2023/10/19 02:03:54;;;;;;;17.50;10.30;;;;;;;-143.90;100.00;65065.84;6186981;23;20377;-81
2023/10/19 02:06:20;;;;;;;19.50;10.35;;;;;;;-143.90;100.00;65065.84;6157539;23;20059;-80
2023/10/19 02:08:56;;;;;;;19.73;8.13;;;;;;;-143.90;100.00;65065.84;6183918;23;20017;-79
2023/10/19 02:11:25;;;;;;;14.82;8.55;;;;;;;-143.90;100.00;65065.84;6182325;23;20013;-80
2023/10/19 02:13:59;;;;;;;13.10;7.63;;;;;;;-143.90;100.00;65065.84;6157348;23;20393;-80
2023/10/19 02:16:26;;;;;;;12.35;6.70;;;;;;;-143.90;100.00;65065.84;6157598;23;20056;-81
2023/10/19 02:18:51;;;;;;;10.18;6.95;;;;;;;-143.90;100.00;65065.84;6183747;23;20015;-80
2023/10/19 02:21:27;;;;;;;11.65;6.13;;;;;;;-143.90;100.00;65065.84;6182195;23;20005;-80
2023/10/19 02:23:52;;;;;;;13.38;7.05;;;;;;;-143.90;100.00;65065.84;6183870;23;20013;-81
2023/10/19 02:26:30;;;;;;;9.82;5.80;;;;;;;-143.90;100.00;65065.84;6183680;23;20029;-79
2023/10/19 02:28:56;;;;;;;8.50;5.65;;;;;;;-143.90;100.00;65065.84;6182314;23;20017;-80
2023/10/19 02:31:23;;;;;;;10.48;5.20;;;;;;;-143.90;100.00;65065.84;6183693;23;20427;-79
2023/10/19 02:33:51;;;;;;;7.00;4.43;;;;;;;-143.90;100.00;65065.84;6184151;23;20373;-80
2023/10/19 02:36:19;;;;;;;9.57;4.05;;;;;;;-143.90;100.00;65065.84;6183678;23;20009;-81
2023/10/19 02:38:51;;;;;;;7.68;3.63;;;;;;;-143.90;100.00;65065.84;6183552;23;20028;-80
2023/10/19 02:41:18;;;;;;;8.98;3.30;;;;;;;-143.90;100.00;65065.84;6183648;23;20001;-81
2023/10/19 02:43:46;;;;;;;8.50;3.58;;;;;;;-143.90;100.00;65065.84;6181870;23;20009;-80
2023/10/19 02:46:13;;;;;;;10.90;3.30;;;;;;;-143.90;100.00;65065.84;6157173;23;20426;-80
2023/10/19 02:48:44;;;;;;;9.35;2.92;;;;;;;-143.90;100.00;65065.84;6181764;23;20088;-80
2023/10/19 02:51:10;;;;;;;9.07;3.28;;;;;;;-143.90;100.00;65065.84;6183544;23;20365;-81
2023/10/19 02:53:38;;;;;;;8.32;3.00;;;;;;;-143.90;100.00;65065.84;6157107;23;20016;-81
2023/10/19 02:56:10;;;;;;;5.18;3.00;;;;;;;-143.90;100.00;65065.84;6181983;23;20041;-80
2023/10/19 02:58:36;;;;;;;5.57;2.70;;;;;;;-143.90;100.00;65065.84;6183325;23;20088;-81
2023/10/19 03:01:01;;;;;;;5.18;3.15;;;;;;;-143.90;100.00;65065.84;6183582;23;20032;-81
2023/10/19 03:03:27;;;;;;;7.13;3.00;;;;;;;-143.90;100.00;65065.84;6157029;23;20012;-81
2023/10/19 03:05:53;;;;;;;9.40;2.80;;;;;;;-143.90;100.00;65065.84;6157051;23;20016;-78
2023/10/19 03:08:19;;;;;;;6.75;2.47;;;;;;;-143.90;100.00;65065.84;6183214;23;20347;-79
2023/10/19 03:10:44;;;;;;;5.28;2.60;;;;;;;-143.90;100.00;65065.84;6183317;23;20047;-77
2023/10/19 03:13:10;;;;;;;9.63;3.08;;;;;;;-143.90;100.00;65065.84;6181706;23;20013;-77
2023/10/19 03:15:42;;;;;;;9.82;2.60;;;;;;;-143.90;100.00;65065.84;6184299;23;20087;-78
2023/10/19 03:18:08;;;;;;;6.05;2.75;;;;;;;-143.90;100.00;65065.84;6158139;23;20013;-78
2023/10/19 03:20:33;;;;;;;5.53;2.58;;;;;;;-143.90;100.00;65065.84;6184657;23;20488;-77
2023/10/19 03:23:01;;;;;;;8.23;2.90;;;;;;;-143.90;100.00;65065.84;6184641;23;20061;-77
2023/10/19 03:28:11;;;;;;;6.00;2.85;;;;;;;-143.90;100.00;65065.84;6184549;23;20020;-78
2023/10/19 03:30:40;;;;;;;7.20;2.40;;;;;;;-143.90;100.00;65065.84;6183029;23;20005;-78
2023/10/19 03:33:11;;;;;;;6.95;2.90;;;;;;;-143.90;100.00;65065.84;6184518;23;20040;-79
2023/10/19 03:35:38;;;;;;;8.90;2.97;;;;;;;-143.90;100.00;65065.84;6183077;23;20008;-78
2023/10/19 03:38:18;;;;;;;6.55;2.85;;;;;;;-143.90;100.00;65065.84;6184557;23;20080;-79
2023/10/19 03:40:51;;;;;;;8.15;2.50;;;;;;;-143.90;100.00;65065.84;6183075;23;20009;-78
2023/10/19 03:43:17;;;;;;;5.97;3.10;;;;;;;-143.90;100.00;65065.84;6158107;23;20088;-79
2023/10/19 03:45:52;;;;;;;5.80;3.00;;;;;;;-143.90;100.00;65065.84;6184604;23;20433;-78
2023/10/19 03:48:27;;;;;;;7.40;2.90;;;;;;;-143.90;100.00;65065.84;6184343;23;20016;-79
2023/10/19 03:50:56;;;;;;;6.80;3.20;;;;;;;-143.90;100.00;65065.84;6184396;23;20012;-78
2023/10/19 03:53:22;;;;;;;6.10;3.05;;;;;;;-143.90;100.00;65065.84;6183035;23;20426;-79
2023/10/19 03:55:49;;;;;;;6.05;3.25;;;;;;;-143.90;100.00;65065.84;6184448;23;20013;-79
2023/10/19 03:58:15;;;;;;;5.90;3.22;;;;;;;-143.90;100.00;65065.84;6182844;23;20005;-79
2023/10/19 04:00:41;;;;;;;7.53;3.00;;;;;;;-143.90;100.00;65065.84;6184492;23;20009;-79
2023/10/19 04:03:07;;;;;;;5.50;2.67;;;;;;;-143.90;100.00;65065.84;6158097;23;20001;-79
2023/10/19 04:05:38;;;;;;;6.53;3.83;;;;;;;-143.90;100.00;65065.84;6182875;23;20067;-78
2023/10/19 04:08:12;;;;;;;8.43;2.78;;;;;;;-143.90;100.00;65065.84;6182890;23;20009;-79
2023/10/19 04:13:04;;;;;;;7.57;3.00;;;;;;;-143.90;100.00;65065.84;6185013;23;20013;-78
2023/10/19 04:15:30;;;;;;;8.73;2.88;;;;;;;-143.90;100.00;65065.84;6182791;23;20271;-79
2023/10/19 04:18:00;;;;;;;5.60;2.72;;;;;;;-143.90;100.00;65065.84;6184209;23;20089;-78
2023/10/19 04:20:29;;;;;;;7.32;3.13;;;;;;;-143.90;100.00;65065.84;6157865;23;20009;-78
2023/10/19 04:22:54;;;;;;;7.47;3.40;;;;;;;-143.90;100.00;65065.84;6157938;23;20005;-80
2023/10/19 04:25:20;;;;;;;5.97;2.80;;;;;;;-143.90;100.00;65065.84;6182511;23;20434;-79
2023/10/19 04:27:46;;;;;;;7.80;2.90;;;;;;;-143.90;100.00;65065.84;6184188;23;20008;-79
2023/10/19 04:30:16;;;;;;;6.72;2.95;;;;;;;-143.90;100.00;65065.84;6184413;23;20035;-79
2023/10/19 04:32:42;;;;;;;10.23;3.10;;;;;;;-143.90;100.00;65065.84;6184269;23;20055;-79
2023/10/19 04:35:13;;;;;;;7.22;2.88;;;;;;;-143.90;100.00;65065.84;6184268;23;20040;-77
2023/10/19 04:37:42;;;;;;;11.23;3.70;;;;;;;-143.90;100.00;65065.84;6182778;23;20025;-78
2023/10/19 04:40:10;;;;;;;8.10;3.00;;;;;;;-143.90;100.00;65065.84;6182638;23;20068;-79
2023/10/19 04:42:36;;;;;;;11.38;3.55;;;;;;;-143.90;100.00;65065.84;6184253;23;20369;-78
2023/10/19 04:45:02;;;;;;;7.93;2.92;;;;;;;-143.90;100.00;65065.84;6184259;23;20037;-77
2023/10/19 04:47:28;;;;;;;9.38;3.28;;;;;;;-143.90;100.00;65065.84;6184131;23;20092;-77
2023/10/19 04:49:53;;;;;;;8.25;2.78;;;;;;;-143.90;100.00;65065.84;6184080;23;20037;-78
2023/10/19 04:52:19;;;;;;;5.70;2.60;;;;;;;-143.90;100.00;65065.84;6184190;23;20334;-78
2023/10/19 04:54:44;;;;;;;5.97;3.00;;;;;;;-143.90;100.00;65065.84;6184115;23;20087;-79
2023/10/19 04:57:10;;;;;;;6.77;2.93;;;;;;;-143.90;100.00;65065.84;6157726;23;20090;-78
2023/10/19 04:59:36;;;;;;;9.57;3.60;;;;;;;-143.90;100.00;65065.84;6157704;23;20248;-78
2023/10/19 05:02:01;;;;;;;6.10;2.90;;;;;;;-143.90;100.00;65065.84;6157759;23;20005;-79
2023/10/19 05:04:30;;;;;;;10.27;3.30;;;;;;;-143.90;100.00;65065.84;6184090;23;20430;-80
2023/10/19 05:06:55;;;;;;;6.57;3.22;;;;;;;-143.90;100.00;65065.84;6184168;23;20431;-80
2023/10/19 05:09:21;;;;;;;10.95;3.50;;;;;;;-143.90;100.00;65065.84;6157602;23;20016;-80
2023/10/19 05:11:46;;;;;;;8.35;3.47;;;;;;;-143.90;100.00;65065.84;6184064;23;20012;-79
2023/10/19 05:14:16;;;;;;;6.25;3.17;;;;;;;-143.90;100.00;65065.84;6157637;23;20406;-80
2023/10/19 05:16:41;;;;;;;7.65;3.08;;;;;;;-143.90;100.00;65065.84;6157770;23;20005;-80
2023/10/19 05:19:06;;;;;;;10.98;3.25;;;;;;;-143.90;100.00;65065.84;6184188;23;20091;-79
2023/10/19 05:21:33;;;;;;;6.93;3.33;;;;;;;-143.90;100.00;65065.84;6182322;23;20481;-80
2023/10/19 05:24:00;;;;;;;7.47;3.22;;;;;;;-143.90;100.00;65065.84;6184083;23;20009;-81
2023/10/19 05:26:26;;;;;;;5.97;3.28;;;;;;;-143.90;100.00;65065.84;6157612;23;20009;-80
2023/10/19 05:28:51;;;;;;;10.98;3.03;;;;;;;-143.90;100.00;65065.84;6182521;23;20009;-79
2023/10/19 05:31:16;;;;;;;11.73;4.45;;;;;;;-143.90;100.00;65065.84;6182560;23;20009;-80
2023/10/19 05:33:42;;;;;;;6.25;3.30;;;;;;;-143.90;100.00;65065.84;6183893;23;20001;-80
2023/10/19 05:36:07;;;;;;;8.18;3.08;;;;;;;-143.90;100.00;65065.84;6183613;23;20009;-79
2023/10/19 05:38:32;;;;;;;12.40;3.70;;;;;;;-143.90;100.00;65065.84;6182026;23;20012;-80
2023/10/19 05:40:59;;;;;;;8.80;4.05;;;;;;;-143.90;100.00;65065.84;6183985;23;20013;-78
2023/10/19 05:43:25;;;;;;;8.93;3.42;;;;;;;-143.90;100.00;65065.84;6184226;23;20418;-78
2023/10/19 05:45:51;;;;;;;7.93;3.50;;;;;;;-143.90;100.00;65065.84;6182421;23;20009;-77
2023/10/19 05:48:16;;;;;;;7.55;3.45;;;;;;;-143.90;100.00;65065.84;6182308;23;20342;-79
2023/10/19 05:50:42;;;;;;;9.63;4.00;;;;;;;-143.90;100.00;65065.84;6182260;23;20005;-79
2023/10/19 05:53:08;;;;;;;11.20;3.80;;;;;;;-143.90;100.00;65065.84;6182419;23;20091;-79
2023/10/19 05:55:35;;;;;;;12.50;3.88;;;;;;;-143.90;100.00;65065.84;6183825;23;20443;-77
2023/10/19 05:58:04;;;;;;;12.20;4.55;;;;;;;-143.90;100.00;65065.84;6157454;23;20019;-79
2023/10/19 06:00:30;;;;;;;9.13;3.40;;;;;;;-143.90;100.00;65065.84;6182275;23;20031;-79
2023/10/19 06:02:56;;;;;;;8.65;3.47;;;;;;;-143.90;100.00;65065.84;6182335;23;20096;-78
2023/10/19 06:05:21;;;;;;;12.65;3.78;;;;;;;-143.90;100.00;65065.84;6157224;23;20037;-79
2023/10/19 06:07:49;;;;;;;7.13;3.83;;;;;;;-143.90;100.00;65065.84;6183599;23;20029;-78
2023/10/19 06:10:17;;;;;;;7.35;3.42;;;;;;;-143.90;100.00;65065.84;6183802;23;20009;-78
2023/10/19 06:12:43;;;;;;;11.73;4.53;;;;;;;-143.90;100.00;65065.84;6183851;23;20035;-79
2023/10/19 06:15:10;;;;;;;8.25;3.20;;;;;;;-143.90;100.00;65065.84;6182222;23;20333;-79
2023/10/19 06:17:37;;;;;;;13.45;4.13;;;;;;;-143.90;100.00;65065.84;6182229;23;20232;-78
2023/10/19 06:20:04;;;;;;;12.55;3.53;;;;;;;-143.90;100.00;65065.84;6183939;23;20330;-79
2023/10/19 06:22:30;;;;;;;8.65;3.53;;;;;;;-143.90;100.00;65065.84;6183641;23;20013;-78
2023/10/19 06:24:55;;;;;;;10.07;4.50;;;;;;;-143.90;100.00;65065.84;6183598;23;20054;-78
2023/10/19 06:27:20;;;;;;;14.25;3.97;;;;;;;-143.90;100.00;65065.84;6183539;23;20383;-79
2023/10/19 06:29:45;;;;;;;11.45;4.90;;;;;;;-143.90;100.00;65065.84;6183838;23;20453;-78
2023/10/19 06:32:12;;;;;;;8.35;3.40;;;;;;;-143.90;100.00;65065.84;6182039;23;20015;-78
2023/10/19 06:34:38;;;;;;;8.98;3.55;;;;;;;-143.90;100.00;65065.84;6157526;23;20009;-78
2023/10/19 06:37:07;;;;;;;13.95;4.68;;;;;;;-143.90;100.00;65065.84;6182091;23;20338;-79
2023/10/19 06:39:32;;;;;;;12.00;3.55;;;;;;;-143.90;100.00;65065.84;6183585;23;20370;-78
2023/10/19 06:41:57;;;;;;;11.77;4.05;;;;;;;-143.90;100.00;65065.84;6184301;23;20015;-80
2023/10/19 06:44:23;;;;;;;9.07;4.22;;;;;;;-143.90;100.00;65065.84;6183666;23;20021;-80
2023/10/19 06:46:48;;;;;;;14.27;3.90;;;;;;;-143.90;100.00;65065.84;6185238;23;20001;-79
2023/10/19 06:49:15;;;;;;;12.07;3.80;;;;;;;-143.90;100.00;65065.84;6184400;23;20092;-79
2023/10/19 06:51:40;;;;;;;11.18;3.55;;;;;;;-143.90;100.00;65065.84;6183943;23;20075;-79
2023/10/19 06:54:08;;;;;;;13.65;3.80;;;;;;;-143.90;100.00;65065.84;6157159;23;20497;-79
2023/10/19 06:56:36;;;;;;;12.27;4.20;;;;;;;-143.90;100.00;65065.84;6157382;23;20005;-79
2023/10/19 06:59:05;;;;;;;11.05;3.97;;;;;;;-143.90;100.00;65065.84;6157506;23;20553;-80
2023/10/19 07:01:32;;;;;;;14.65;4.00;;;;;;;-143.90;100.00;65065.84;6183375;23;20005;-79
2023/10/19 07:03:58;;;;;;;11.70;4.03;;;;;;;-143.90;100.00;65065.84;6183453;23;20009;-80
2023/10/19 07:06:23;;;;;;;10.50;4.15;;;;;;;-143.90;100.00;65065.84;6156965;23;20005;-78
2023/10/19 07:08:49;;;;;;;10.05;4.40;;;;;;;-143.90;100.00;65065.84;6183203;23;20015;-80
2023/10/19 07:11:14;;;;;;;12.00;3.67;;;;;;;-143.90;100.00;65065.84;6183409;23;20033;-78
2023/10/19 07:13:39;;;;;;;10.05;4.03;;;;;;;-143.90;100.00;65065.84;6183216;23;20373;-78
2023/10/19 07:16:05;;;;;;;16.40;4.78;;;;;;;-143.90;100.00;65065.84;6182153;23;20001;-79
2023/10/19 07:18:31;;;;;;;20.55;5.25;;;;;;;-143.90;100.00;65065.84;6183325;23;20009;-79
2023/10/19 07:21:03;;;;;;;9.68;4.13;;;;;;;-143.90;100.00;65065.84;6183367;23;20083;-80
2023/10/19 07:23:28;;;;;;;8.70;4.22;;;;;;;-143.90;100.00;65065.84;6183277;23;20005;-80
2023/10/19 07:25:55;;;;;;;14.00;4.60;;;;;;;-143.90;100.00;65065.84;6183015;23;20139;-80
2023/10/19 07:28:27;;;;;;;10.57;3.88;;;;;;;-143.90;100.00;65065.84;6156626;23;20009;-78
2023/10/19 07:30:53;;;;;;;11.27;4.10;;;;;;;-143.90;100.00;65065.84;6156681;23;20004;-79
2023/10/19 07:33:19;;;;;;;12.98;4.35;;;;;;;-143.90;100.00;65065.84;6183097;23;20509;-79
2023/10/19 07:35:52;;;;;;;13.07;5.00;;;;;;;-143.90;100.00;65065.84;6183165;23;20016;-79
2023/10/19 07:38:21;;;;;;;9.65;3.97;;;;;;;-143.90;100.00;65065.84;6156546;23;20358;-79
2023/10/19 07:40:47;;;;;;;13.15;4.85;;;;;;;-143.90;100.00;65065.84;6181512;23;20013;-79
2023/10/19 07:43:12;;;;;;;12.55;4.95;;;;;;;-143.90;100.00;65065.84;6182952;23;20381;-80
2023/10/19 07:45:38;;;;;;;11.98;3.92;;;;;;;-143.90;100.00;65065.84;6183749;23;20069;-80
2023/10/19 07:48:06;;;;;;;12.75;4.53;;;;;;;-143.90;100.00;65065.84;6181939;23;20339;-80
2023/10/19 07:50:35;;;;;;;13.77;5.15;;;;;;;-143.90;100.00;65065.84;6183687;23;20084;-80
2023/10/19 07:53:01;;;;;;;13.35;4.47;;;;;;;-143.90;100.00;65065.84;6183749;23;20008;-80
2023/10/19 07:55:27;;;;;;;8.77;3.80;;;;;;;-143.90;100.00;65065.84;6183503;23;20009;-80
2023/10/19 07:57:53;;;;;;;10.85;4.00;;;;;;;-143.90;100.00;65065.84;6182763;23;20016;-79
2023/10/19 08:00:20;;;;;;;8.05;3.78;;;;;;;-143.90;100.00;65065.84;6156765;23;20017;-79
2023/10/19 08:02:45;;;;;;;11.10;3.72;;;;;;;-143.90;100.00;65065.84;6184438;23;20013;-81
2023/10/19 08:05:12;;;;;;;11.88;3.78;;;;;;;-143.90;100.00;65065.84;6183110;23;20011;-80
2023/10/19 08:07:46;;;;;;;11.55;3.90;;;;;;;-143.90;100.00;65065.84;6182640;23;20044;-79
2023/10/19 08:10:13;;;;;;;10.82;3.50;;;;;;;-143.90;100.00;65065.84;6184463;23;20012;-80
2023/10/19 08:12:42;;;;;;;9.18;3.90;;;;;;;-143.90;100.00;65065.84;6184378;23;20084;-79
2023/10/19 08:15:11;;;;;;;7.95;3.35;;;;;;;-143.90;100.00;65065.84;6184230;23;20372;-79
2023/10/19 08:17:41;;;;;;;8.27;3.22;;;;;;;-143.90;100.00;65065.84;6184296;23;20099;-78
2023/10/19 08:20:09;;;;;;;16.60;3.92;;;;;;;-143.90;100.00;65065.84;6182794;23;20156;-79
2023/10/19 08:22:36;;;;;;;8.75;3.45;;;;;;;-143.90;100.00;65065.84;6158083;23;20342;-77
2023/10/19 08:25:11;;;;;;;6.95;4.00;;;;;;;-143.90;100.00;65065.84;6182848;23;20091;-79
2023/10/19 08:27:44;;;;;;;7.97;3.13;;;;;;;-143.90;100.00;65065.84;6182783;23;20088;-78
2023/10/19 08:30:10;;;;;;;9.00;3.40;;;;;;;-143.90;100.00;65065.84;6184251;23;20001;-80
2023/10/19 08:32:36;;;;;;;12.50;3.30;;;;;;;-143.90;100.00;65065.84;6184403;23;20005;-80
2023/10/19 08:35:02;;;;;;;8.45;3.33;;;;;;;-143.90;100.00;65065.84;6184352;23;20419;-79
2023/10/19 08:37:28;;;;;;;12.52;4.32;;;;;;;-143.90;100.00;65065.84;6183013;23;20009;-79
2023/10/19 08:39:53;;;;;;;10.98;3.30;;;;;;;-143.90;100.00;65065.84;6157903;23;20054;-81
2023/10/19 08:42:20;;;;;;;8.60;3.30;;;;;;;-143.90;100.00;65065.84;6184059;23;20004;-78
2023/10/19 08:44:45;;;;;;;9.02;2.97;;;;;;;-143.90;100.00;65065.84;6184323;23;20374;-81
2023/10/19 08:47:12;;;;;;;10.70;2.97;;;;;;;-143.90;100.00;65065.84;6184070;23;20005;-82
2023/10/19 08:49:37;;;;;;;8.68;2.97;;;;;;;-143.90;100.00;65065.84;6182469;23;20005;-79
2023/10/19 08:52:06;;;;;;;8.35;3.20;;;;;;;-143.90;100.00;65065.84;6184180;23;20338;-79
2023/10/19 08:54:33;;;;;;;8.38;2.95;;;;;;;-143.90;100.00;65065.84;6157566;23;20431;-80
2023/10/19 08:56:59;;;;;;;9.25;2.70;;;;;;;-143.90;100.00;65065.84;6184006;23;20012;-84
2023/10/19 08:59:25;;;;;;;8.77;2.40;;;;;;;-143.90;100.00;65065.84;6182599;23;20013;-80
2023/10/19 09:01:50;;;;;;;9.50;3.05;;;;;;;-143.90;100.00;65065.84;6184414;23;20005;-82
2023/10/19 09:04:16;;;;;;;9.10;3.15;;;;;;;-143.90;100.00;65065.84;6184293;23;20012;-83
2023/10/19 09:06:56;;;;;;;9.80;3.28;;;;;;;-143.90;100.00;65065.84;6184252;23;20005;-81
2023/10/19 09:09:25;;;;;;;8.48;2.70;;;;;;;-143.90;100.00;65065.84;6182276;23;20016;-83
2023/10/19 09:11:52;;;;;;;7.47;2.85;;;;;;;-143.90;100.00;65065.84;6184038;23;20001;-84
2023/10/19 09:14:33;;;;;;;9.13;3.03;;;;;;;-143.90;100.00;65065.84;6182618;23;20307;-85
2023/10/19 09:17:00;;;;;;;11.27;3.10;;;;;;;-143.90;100.00;65065.84;6158160;23;20032;-84
2023/10/19 09:19:47;;;;;;;7.93;2.42;;;;;;;-143.90;100.00;65065.84;6158039;23;20005;-81
2023/10/19 09:22:18;;;;;;;7.95;2.70;;;;;;;-143.90;100.00;65065.84;6184370;23;20005;-83
2023/10/19 09:24:46;;;;;;;16.20;3.45;;;;;;;-143.90;100.00;65065.84;6182918;23;20005;-84
2023/10/19 09:27:13;;;;;;;10.85;2.83;;;;;;;-143.90;100.00;65065.84;6157659;23;20005;-82
2023/10/19 09:29:40;;;;;;;8.70;3.25;;;;;;;-143.90;100.00;65065.84;6157573;23;20116;-83
2023/10/19 09:32:07;;;;;;;8.90;2.55;;;;;;;-143.90;100.00;65065.84;6157936;23;20016;-82
2023/10/19 09:34:34;;;;;;;7.60;2.45;;;;;;;-143.90;100.00;65065.84;6184257;23;20038;-80
2023/10/19 09:37:03;;;;;;;16.48;3.97;;;;;;;-143.90;100.00;65065.84;6182540;23;20145;-81
2023/10/19 09:39:35;;;;;;;10.15;2.92;;;;;;;-143.90;100.00;65065.84;6182779;23;20071;-83
2023/10/19 09:42:12;;;;;;;8.32;2.58;;;;;;;-143.90;100.00;65065.84;6184506;23;20365;-81
2023/10/19 09:44:43;;;;;;;8.40;2.95;;;;;;;-143.90;100.00;65065.84;6157872;23;20020;-81
2023/10/19 09:47:14;;;;;;;12.05;3.00;;;;;;;-143.90;100.00;65065.84;6184173;23;20027;-82
2023/10/19 09:49:41;;;;;;;11.80;2.67;;;;;;;-143.90;100.00;65065.84;6182738;23;20108;-83
2023/10/19 09:52:08;;;;;;;10.95;2.92;;;;;;;-143.90;100.00;65065.84;6184132;23;20005;-81
2023/10/19 09:55:00;;;;;;;11.20;2.50;;;;;;;-143.90;100.00;65065.84;6182515;23;20350;-83
2023/10/19 09:57:37;;;;;;;11.02;3.00;;;;;;;-143.90;100.00;65065.84;6182433;23;20009;-81
2023/10/19 10:00:11;;;;;;;9.98;2.78;;;;;;;-143.90;100.00;65065.84;6157603;23;20060;-82
2023/10/19 10:02:38;;;;;;;12.48;2.97;;;;;;;-143.90;100.00;65065.84;6157537;23;20083;-82
2023/10/19 10:05:04;;;;;;;10.15;2.60;;;;;;;-143.90;100.00;65065.84;6183851;23;20005;-82
2023/10/19 10:07:30;;;;;;;8.57;2.60;;;;;;;-143.90;100.00;65065.84;6183771;23;20095;-81
2023/10/19 10:09:56;;;;;;;6.90;3.08;;;;;;;-143.90;100.00;65065.84;6183965;23;20434;-80
2023/10/19 10:12:34;;;;;;;9.65;2.67;;;;;;;-143.90;100.00;65065.84;6182108;23;20005;-81
2023/10/19 10:15:03;;;;;;;10.75;3.22;;;;;;;-143.90;100.00;65065.84;6157397;23;20338;-81
2023/10/19 10:17:34;;;;;;;9.43;3.08;;;;;;;-143.90;100.00;65065.84;6182200;23;20000;-80
2023/10/19 10:20:48;;;;;;;7.13;2.55;;;;;;;-143.90;100.00;65065.84;6184248;23;20016;-85
2023/10/19 10:23:26;;;;;;;11.82;2.80;;;;;;;-143.90;100.00;65065.84;6182168;23;20552;-84
2023/10/19 10:25:53;;;;;;;7.50;2.50;;;;;;;-143.90;100.00;65065.84;6183856;23;20492;-82
2023/10/19 10:28:24;;;;;;;14.63;3.20;;;;;;;-143.90;100.00;65065.84;6157266;23;20441;-79
2023/10/19 10:31:09;;;;;;;10.98;2.83;;;;;;;-143.90;100.00;65065.84;6157345;23;20426;-80
2023/10/19 10:33:54;;;;;;;9.70;2.85;;;;;;;-143.90;100.00;65065.84;6183957;23;20312;-83
2023/10/19 10:36:21;;;;;;;7.65;3.25;;;;;;;-143.90;100.00;65065.84;6157327;23;20470;-84
2023/10/19 10:42:48;;;;;;;11.20;3.72;;;;;;;-143.90;100.00;65065.84;6123222;23;20017;-79
2023/10/19 10:45:45;;;;;;;8.07;2.40;;;;;;;-143.90;100.00;65065.84;6183728;23;20009;-81
2023/10/19 10:48:15;;;;;;;8.20;2.30;;;;;;;-143.90;100.00;65065.84;6170057;23;20009;-81
2023/10/19 10:50:46;;;;;;;8.82;3.10;;;;;;;-143.90;100.00;65065.84;6182162;23;20040;-80
2023/10/19 10:53:12;;;;;;;9.43;2.30;;;;;;;-143.90;100.00;65065.84;6181927;23;20008;-80
2023/10/19 10:55:39;;;;;;;10.50;2.80;;;;;;;-143.90;100.00;65065.84;6181935;23;20009;-80
2023/10/19 10:58:20;;;;;;;13.07;3.30;;;;;;;-143.90;100.00;65065.84;6181725;23;20009;-81
2023/10/19 11:07:32;;;;;;;8.18;2.97;;;;;;;-143.90;100.00;65065.84;6124386;23;20130;-78
2023/10/19 11:09:57;;;;;;;12.75;3.58;;;;;;;-143.90;100.00;65065.84;6181896;23;20048;-78
2023/10/19 11:12:24;;;;;;;10.37;3.33;;;;;;;-143.90;100.00;65065.84;6183811;23;20380;-79
2023/10/19 11:14:58;;;;;;;8.63;2.65;;;;;;;-143.90;100.00;65065.84;6157216;23;20244;-79
2023/10/19 11:17:30;;;;;;;8.85;2.20;;;;;;;-143.90;100.00;65065.84;6183627;23;20031;-79
2023/10/19 11:19:57;;;;;;;8.65;3.15;;;;;;;-143.90;100.00;65065.84;6183586;23;20438;-79
2023/10/19 11:22:26;;;;;;;6.57;2.72;;;;;;;-143.90;100.00;65065.84;6181795;23;20088;-79
2023/10/19 11:24:56;;;;;;;6.97;2.50;;;;;;;-143.90;100.00;65065.84;6157072;23;20028;-77
2023/10/19 11:27:26;;;;;;;6.40;2.50;;;;;;;-143.90;100.00;65065.84;6181884;23;20040;-78
2023/10/19 11:29:56;;;;;;;9.82;3.00;;;;;;;-143.90;100.00;65065.84;6181761;23;20412;-78
2023/10/19 11:32:21;;;;;;;12.95;3.88;;;;;;;-143.90;100.00;65065.84;6183360;23;20005;-80
2023/10/19 11:34:48;;;;;;;9.48;2.90;;;;;;;-143.90;100.00;65065.84;6156996;23;20027;-80
2023/10/19 11:37:13;;;;;;;11.30;3.40;;;;;;;-143.90;100.00;65065.84;6183305;23;20081;-78
2023/10/19 11:39:39;;;;;;;11.40;3.25;;;;;;;-143.90;100.00;65065.84;6184732;23;20031;-79